sensor_id;sensor_type;location;lat;lon;timestamp;P1;durP1;ratioP1;P2;durP2;ratioP2
63280;SDS011;49406;51.044;3.766;2022-09-30T00:00:07;6.50;;;3.80;;
63280;SDS011;49406;51.044;3.766;2022-09-30T00:02:43;3.40;;;2.60;;
63280;SDS011;49406;51.044;3.766;2022-09-30T00:05:17;5.60;;;4.30;;
63280;SDS011;49406;51.044;3.766;2022-09-30T00:07:52;5.70;;;4.30;;
63280;SDS011;49406;51.044;3.766;2022-09-30T00:10:26;7.20;;;4.10;;
63280;SDS011;49406;51.044;3.766;2022-09-30T00:13:01;5.00;;;3.40;;
63280;SDS011;49406;51.044;3.766;2022-09-30T00:15:35;9.10;;;3.90;;
63280;SDS011;49406;51.044;3.766;2022-09-30T00:18:10;4.90;;;4.30;;
63280;SDS011;49406;51.044;3.766;2022-09-30T00:20:44;5.20;;;4.20;;
63280;SDS011;49406;51.044;3.766;2022-09-30T00:23:19;10.40;;;5.10;;
63280;SDS011;49406;51.044;3.766;2022-09-30T00:25:57;8.60;;;3.30;;
63280;SDS011;49406;51.044;3.766;2022-09-30T00:28:33;3.40;;;3.10;;
63280;SDS011;49406;51.044;3.766;2022-09-30T00:31:11;4.30;;;3.90;;
63280;SDS011;49406;51.044;3.766;2022-09-30T00:33:47;5.20;;;3.40;;
63280;SDS011;49406;51.044;3.766;2022-09-30T00:36:37;3.90;;;3.40;;
63280;SDS011;49406;51.044;3.766;2022-09-30T00:39:15;7.00;;;3.90;;
63280;SDS011;49406;51.044;3.766;2022-09-30T00:41:51;6.40;;;4.70;;
63280;SDS011;49406;51.044;3.766;2022-09-30T00:44:47;6.90;;;4.70;;
63280;SDS011;49406;51.044;3.766;2022-09-30T00:47:35;5.00;;;3.80;;
63280;SDS011;49406;51.044;3.766;2022-09-30T00:50:15;5.70;;;3.80;;
63280;SDS011;49406;51.044;3.766;2022-09-30T00:52:58;11.10;;;6.50;;
63280;SDS011;49406;51.044;3.766;2022-09-30T00:55:39;10.90;;;4.20;;
63280;SDS011;49406;51.044;3.766;2022-09-30T00:58:20;6.40;;;4.90;;
63280;SDS011;49406;51.044;3.766;2022-09-30T01:00:59;7.90;;;4.50;;
63280;SDS011;49406;51.044;3.766;2022-09-30T01:03:35;5.40;;;3.80;;
63280;SDS011;49406;51.044;3.766;2022-09-30T01:06:13;6.20;;;3.20;;
63280;SDS011;49406;51.044;3.766;2022-09-30T01:08:47;5.40;;;3.50;;
63280;SDS011;49406;51.044;3.766;2022-09-30T01:11:22;7.30;;;4.30;;
63280;SDS011;49406;51.044;3.766;2022-09-30T01:13:59;6.20;;;5.20;;
63280;SDS011;49406;51.044;3.766;2022-09-30T01:16:40;2.70;;;2.40;;
63280;SDS011;49406;51.044;3.766;2022-09-30T01:19:29;6.50;;;4.60;;
63280;SDS011;49406;51.044;3.766;2022-09-30T01:22:31;5.60;;;4.90;;
63280;SDS011;49406;51.044;3.766;2022-09-30T01:25:26;5.50;;;4.90;;
63280;SDS011;49406;51.044;3.766;2022-09-30T01:28:32;4.30;;;3.20;;
63280;SDS011;49406;51.044;3.766;2022-09-30T01:31:21;4.90;;;4.40;;
63280;SDS011;49406;51.044;3.766;2022-09-30T01:34:15;8.50;;;5.10;;
63280;SDS011;49406;51.044;3.766;2022-09-30T01:37:00;6.10;;;3.90;;
63280;SDS011;49406;51.044;3.766;2022-09-30T01:39:45;5.50;;;3.40;;
63280;SDS011;49406;51.044;3.766;2022-09-30T01:42:27;3.20;;;2.30;;
63280;SDS011;49406;51.044;3.766;2022-09-30T01:45:12;4.40;;;3.80;;
63280;SDS011;49406;51.044;3.766;2022-09-30T01:50:31;7.30;;;6.00;;
63280;SDS011;49406;51.044;3.766;2022-09-30T01:53:16;11.20;;;7.30;;
63280;SDS011;49406;51.044;3.766;2022-09-30T01:55:56;8.80;;;6.10;;
63280;SDS011;49406;51.044;3.766;2022-09-30T01:58:38;8.90;;;4.70;;
63280;SDS011;49406;51.044;3.766;2022-09-30T02:01:16;10.30;;;7.00;;
63280;SDS011;49406;51.044;3.766;2022-09-30T02:03:56;9.50;;;5.20;;
63280;SDS011;49406;51.044;3.766;2022-09-30T02:06:36;5.80;;;4.50;;
63280;SDS011;49406;51.044;3.766;2022-09-30T02:09:14;6.30;;;4.40;;
63280;SDS011;49406;51.044;3.766;2022-09-30T02:11:53;4.30;;;3.60;;
63280;SDS011;49406;51.044;3.766;2022-09-30T02:14:32;6.70;;;4.30;;
63280;SDS011;49406;51.044;3.766;2022-09-30T02:17:13;9.30;;;6.10;;
63280;SDS011;49406;51.044;3.766;2022-09-30T02:19:53;5.80;;;3.20;;
63280;SDS011;49406;51.044;3.766;2022-09-30T02:22:32;5.90;;;3.70;;
63280;SDS011;49406;51.044;3.766;2022-09-30T02:25:15;6.00;;;4.80;;
63280;SDS011;49406;51.044;3.766;2022-09-30T02:27:56;9.30;;;5.60;;
63280;SDS011;49406;51.044;3.766;2022-09-30T02:30:33;9.00;;;6.30;;
63280;SDS011;49406;51.044;3.766;2022-09-30T02:33:11;7.00;;;4.90;;
63280;SDS011;49406;51.044;3.766;2022-09-30T02:35:53;9.80;;;3.50;;
63280;SDS011;49406;51.044;3.766;2022-09-30T02:38:35;5.50;;;3.30;;
63280;SDS011;49406;51.044;3.766;2022-09-30T02:41:14;8.90;;;5.20;;
63280;SDS011;49406;51.044;3.766;2022-09-30T02:43:54;5.20;;;4.40;;
63280;SDS011;49406;51.044;3.766;2022-09-30T02:46:33;6.50;;;5.00;;
63280;SDS011;49406;51.044;3.766;2022-09-30T02:49:16;9.30;;;6.40;;
63280;SDS011;49406;51.044;3.766;2022-09-30T02:52:06;6.40;;;4.70;;
63280;SDS011;49406;51.044;3.766;2022-09-30T02:54:49;9.20;;;4.90;;
63280;SDS011;49406;51.044;3.766;2022-09-30T02:57:30;7.90;;;4.10;;
63280;SDS011;49406;51.044;3.766;2022-09-30T03:00:11;8.90;;;7.50;;
63280;SDS011;49406;51.044;3.766;2022-09-30T03:02:46;19.40;;;8.80;;
63280;SDS011;49406;51.044;3.766;2022-09-30T03:05:21;10.70;;;6.50;;
63280;SDS011;49406;51.044;3.766;2022-09-30T03:07:56;6.60;;;4.60;;
63280;SDS011;49406;51.044;3.766;2022-09-30T03:10:31;2.90;;;2.60;;
63280;SDS011;49406;51.044;3.766;2022-09-30T03:13:17;5.50;;;3.60;;
63280;SDS011;49406;51.044;3.766;2022-09-30T03:16:07;9.30;;;5.60;;
63280;SDS011;49406;51.044;3.766;2022-09-30T03:18:58;5.70;;;4.10;;
63280;SDS011;49406;51.044;3.766;2022-09-30T03:21:54;8.90;;;5.60;;
63280;SDS011;49406;51.044;3.766;2022-09-30T03:24:43;8.50;;;5.30;;
63280;SDS011;49406;51.044;3.766;2022-09-30T03:27:28;12.00;;;6.10;;
63280;SDS011;49406;51.044;3.766;2022-09-30T03:30:08;11.90;;;4.70;;
63280;SDS011;49406;51.044;3.766;2022-09-30T03:32:51;6.90;;;4.70;;
63280;SDS011;49406;51.044;3.766;2022-09-30T03:35:36;6.80;;;4.90;;
63280;SDS011;49406;51.044;3.766;2022-09-30T03:38:23;9.80;;;8.00;;
63280;SDS011;49406;51.044;3.766;2022-09-30T03:41:07;6.50;;;4.60;;
63280;SDS011;49406;51.044;3.766;2022-09-30T03:43:50;5.60;;;4.80;;
63280;SDS011;49406;51.044;3.766;2022-09-30T03:46:31;7.10;;;4.80;;
63280;SDS011;49406;51.044;3.766;2022-09-30T03:49:12;9.30;;;6.50;;
63280;SDS011;49406;51.044;3.766;2022-09-30T03:51:54;8.50;;;5.70;;
63280;SDS011;49406;51.044;3.766;2022-09-30T03:54:31;9.20;;;5.70;;
63280;SDS011;49406;51.044;3.766;2022-09-30T03:57:08;7.70;;;5.00;;
63280;SDS011;49406;51.044;3.766;2022-09-30T03:59:44;9.50;;;5.90;;
63280;SDS011;49406;51.044;3.766;2022-09-30T04:02:18;7.10;;;4.30;;
63280;SDS011;49406;51.044;3.766;2022-09-30T04:04:52;7.40;;;5.20;;
63280;SDS011;49406;51.044;3.766;2022-09-30T04:07:27;7.90;;;6.80;;
63280;SDS011;49406;51.044;3.766;2022-09-30T04:10:01;11.10;;;6.50;;
63280;SDS011;49406;51.044;3.766;2022-09-30T04:12:36;9.40;;;7.30;;
63280;SDS011;49406;51.044;3.766;2022-09-30T04:15:11;8.90;;;6.30;;
63280;SDS011;49406;51.044;3.766;2022-09-30T04:17:45;11.00;;;5.30;;
63280;SDS011;49406;51.044;3.766;2022-09-30T04:20:19;12.40;;;7.20;;
63280;SDS011;49406;51.044;3.766;2022-09-30T04:22:56;14.90;;;5.80;;
63280;SDS011;49406;51.044;3.766;2022-09-30T04:25:31;11.00;;;7.40;;
63280;SDS011;49406;51.044;3.766;2022-09-30T04:28:06;8.20;;;5.30;;
63280;SDS011;49406;51.044;3.766;2022-09-30T04:30:41;11.90;;;8.90;;
63280;SDS011;49406;51.044;3.766;2022-09-30T04:33:15;4.70;;;3.80;;
63280;SDS011;49406;51.044;3.766;2022-09-30T04:35:49;9.70;;;6.30;;
63280;SDS011;49406;51.044;3.766;2022-09-30T04:38:26;9.00;;;5.60;;
63280;SDS011;49406;51.044;3.766;2022-09-30T04:41:02;6.20;;;4.40;;
63280;SDS011;49406;51.044;3.766;2022-09-30T04:43:37;5.20;;;4.10;;
63280;SDS011;49406;51.044;3.766;2022-09-30T04:46:15;9.90;;;6.60;;
63280;SDS011;49406;51.044;3.766;2022-09-30T04:48:51;7.80;;;4.30;;
63280;SDS011;49406;51.044;3.766;2022-09-30T04:51:25;9.20;;;6.30;;
63280;SDS011;49406;51.044;3.766;2022-09-30T04:54:00;4.90;;;4.10;;
63280;SDS011;49406;51.044;3.766;2022-09-30T04:56:34;7.70;;;5.80;;
63280;SDS011;49406;51.044;3.766;2022-09-30T04:59:09;8.90;;;5.30;;
63280;SDS011;49406;51.044;3.766;2022-09-30T05:01:43;5.10;;;4.30;;
63280;SDS011;49406;51.044;3.766;2022-09-30T05:04:18;10.30;;;5.80;;
63280;SDS011;49406;51.044;3.766;2022-09-30T05:06:52;7.40;;;6.20;;
63280;SDS011;49406;51.044;3.766;2022-09-30T05:09:26;10.80;;;6.60;;
63280;SDS011;49406;51.044;3.766;2022-09-30T05:12:01;12.80;;;8.10;;
63280;SDS011;49406;51.044;3.766;2022-09-30T05:14:35;7.80;;;5.00;;
63280;SDS011;49406;51.044;3.766;2022-09-30T05:17:10;6.80;;;5.00;;
63280;SDS011;49406;51.044;3.766;2022-09-30T05:19:44;5.70;;;4.20;;
63280;SDS011;49406;51.044;3.766;2022-09-30T05:22:19;5.00;;;3.80;;
63280;SDS011;49406;51.044;3.766;2022-09-30T05:24:55;5.90;;;4.30;;
63280;SDS011;49406;51.044;3.766;2022-09-30T05:27:29;6.90;;;4.20;;
63280;SDS011;49406;51.044;3.766;2022-09-30T05:30:04;8.50;;;5.00;;
63280;SDS011;49406;51.044;3.766;2022-09-30T05:32:39;9.60;;;6.70;;
63280;SDS011;49406;51.044;3.766;2022-09-30T05:35:14;8.10;;;4.30;;
63280;SDS011;49406;51.044;3.766;2022-09-30T05:37:49;6.80;;;5.20;;
63280;SDS011;49406;51.044;3.766;2022-09-30T05:40:23;8.70;;;5.10;;
63280;SDS011;49406;51.044;3.766;2022-09-30T05:42:58;6.80;;;4.60;;
63280;SDS011;49406;51.044;3.766;2022-09-30T05:45:32;6.50;;;4.90;;
63280;SDS011;49406;51.044;3.766;2022-09-30T05:48:08;6.30;;;4.20;;
63280;SDS011;49406;51.044;3.766;2022-09-30T05:50:43;7.80;;;4.90;;
63280;SDS011;49406;51.044;3.766;2022-09-30T05:55:55;11.60;;;4.70;;
63280;SDS011;49406;51.044;3.766;2022-09-30T05:58:29;6.20;;;3.80;;
63280;SDS011;49406;51.044;3.766;2022-09-30T06:01:04;4.70;;;3.60;;
63280;SDS011;49406;51.044;3.766;2022-09-30T06:03:40;6.70;;;4.70;;
63280;SDS011;49406;51.044;3.766;2022-09-30T06:06:15;6.70;;;4.00;;
63280;SDS011;49406;51.044;3.766;2022-09-30T06:08:51;7.80;;;5.20;;
63280;SDS011;49406;51.044;3.766;2022-09-30T06:11:25;5.10;;;3.80;;
63280;SDS011;49406;51.044;3.766;2022-09-30T06:14:00;3.10;;;2.70;;
63280;SDS011;49406;51.044;3.766;2022-09-30T06:16:35;4.70;;;4.10;;
63280;SDS011;49406;51.044;3.766;2022-09-30T06:19:09;5.10;;;3.90;;
63280;SDS011;49406;51.044;3.766;2022-09-30T06:21:44;14.80;;;4.30;;
63280;SDS011;49406;51.044;3.766;2022-09-30T06:24:18;7.30;;;4.10;;
63280;SDS011;49406;51.044;3.766;2022-09-30T06:26:53;5.40;;;4.40;;
63280;SDS011;49406;51.044;3.766;2022-09-30T06:29:27;7.10;;;4.20;;
63280;SDS011;49406;51.044;3.766;2022-09-30T06:32:02;6.40;;;4.50;;
63280;SDS011;49406;51.044;3.766;2022-09-30T06:34:37;7.90;;;5.80;;
63280;SDS011;49406;51.044;3.766;2022-09-30T06:37:11;10.10;;;4.10;;
63280;SDS011;49406;51.044;3.766;2022-09-30T06:39:46;4.80;;;3.60;;
63280;SDS011;49406;51.044;3.766;2022-09-30T06:42:21;6.70;;;5.60;;
63280;SDS011;49406;51.044;3.766;2022-09-30T06:44:55;6.20;;;4.70;;
63280;SDS011;49406;51.044;3.766;2022-09-30T06:47:29;7.10;;;4.60;;
63280;SDS011;49406;51.044;3.766;2022-09-30T06:50:04;10.10;;;5.10;;
63280;SDS011;49406;51.044;3.766;2022-09-30T06:52:39;5.30;;;4.90;;
63280;SDS011;49406;51.044;3.766;2022-09-30T06:55:14;6.10;;;4.80;;
63280;SDS011;49406;51.044;3.766;2022-09-30T06:57:48;5.40;;;5.00;;
63280;SDS011;49406;51.044;3.766;2022-09-30T07:00:24;4.10;;;3.40;;
63280;SDS011;49406;51.044;3.766;2022-09-30T07:02:59;4.30;;;2.80;;
63280;SDS011;49406;51.044;3.766;2022-09-30T07:05:33;5.00;;;3.50;;
63280;SDS011;49406;51.044;3.766;2022-09-30T07:08:08;6.70;;;5.40;;
63280;SDS011;49406;51.044;3.766;2022-09-30T07:10:45;8.40;;;4.60;;
63280;SDS011;49406;51.044;3.766;2022-09-30T07:13:19;8.20;;;6.00;;
63280;SDS011;49406;51.044;3.766;2022-09-30T07:15:53;6.50;;;5.30;;
63280;SDS011;49406;51.044;3.766;2022-09-30T07:23:33;7.50;;;3.50;;
63280;SDS011;49406;51.044;3.766;2022-09-30T07:26:08;7.20;;;4.10;;
63280;SDS011;49406;51.044;3.766;2022-09-30T07:28:43;3.00;;;2.80;;
63280;SDS011;49406;51.044;3.766;2022-09-30T07:31:18;7.30;;;4.40;;
63280;SDS011;49406;51.044;3.766;2022-09-30T07:33:54;7.00;;;4.20;;
63280;SDS011;49406;51.044;3.766;2022-09-30T07:36:29;4.20;;;3.70;;
63280;SDS011;49406;51.044;3.766;2022-09-30T07:39:04;10.90;;;4.70;;
63280;SDS011;49406;51.044;3.766;2022-09-30T07:41:40;2.80;;;2.60;;
63280;SDS011;49406;51.044;3.766;2022-09-30T07:44:15;3.80;;;3.40;;
63280;SDS011;49406;51.044;3.766;2022-09-30T07:46:50;21.70;;;3.60;;
63280;SDS011;49406;51.044;3.766;2022-09-30T07:49:25;6.70;;;3.50;;
63280;SDS011;49406;51.044;3.766;2022-09-30T07:52:00;10.40;;;7.80;;
63280;SDS011;49406;51.044;3.766;2022-09-30T07:54:35;9.80;;;3.50;;
63280;SDS011;49406;51.044;3.766;2022-09-30T07:57:09;4.40;;;3.50;;
63280;SDS011;49406;51.044;3.766;2022-09-30T07:59:44;3.70;;;2.40;;
63280;SDS011;49406;51.044;3.766;2022-09-30T08:02:18;4.80;;;3.40;;
63280;SDS011;49406;51.044;3.766;2022-09-30T08:04:54;5.50;;;3.00;;
63280;SDS011;49406;51.044;3.766;2022-09-30T08:07:30;10.50;;;2.70;;
63280;SDS011;49406;51.044;3.766;2022-09-30T08:10:05;13.10;;;3.10;;
63280;SDS011;49406;51.044;3.766;2022-09-30T08:12:40;1.90;;;1.70;;
63280;SDS011;49406;51.044;3.766;2022-09-30T08:15:15;6.00;;;3.70;;
63280;SDS011;49406;51.044;3.766;2022-09-30T08:17:49;3.40;;;2.70;;
63280;SDS011;49406;51.044;3.766;2022-09-30T08:20:24;3.00;;;2.70;;
63280;SDS011;49406;51.044;3.766;2022-09-30T08:22:58;4.00;;;3.40;;
63280;SDS011;49406;51.044;3.766;2022-09-30T08:25:32;3.10;;;2.80;;
63280;SDS011;49406;51.044;3.766;2022-09-30T08:28:07;3.60;;;2.80;;
63280;SDS011;49406;51.044;3.766;2022-09-30T08:30:41;5.70;;;4.00;;
63280;SDS011;49406;51.044;3.766;2022-09-30T08:33:16;4.90;;;3.10;;
63280;SDS011;49406;51.044;3.766;2022-09-30T08:35:50;2.90;;;2.10;;
63280;SDS011;49406;51.044;3.766;2022-09-30T08:38:24;7.10;;;3.70;;
63280;SDS011;49406;51.044;3.766;2022-09-30T08:41:02;5.50;;;2.10;;
63280;SDS011;49406;51.044;3.766;2022-09-30T08:43:45;2.80;;;2.30;;
63280;SDS011;49406;51.044;3.766;2022-09-30T08:46:34;5.10;;;2.60;;
63280;SDS011;49406;51.044;3.766;2022-09-30T08:49:21;10.30;;;2.10;;
63280;SDS011;49406;51.044;3.766;2022-09-30T08:52:10;4.90;;;3.10;;
63280;SDS011;49406;51.044;3.766;2022-09-30T08:54:49;5.50;;;3.10;;
63280;SDS011;49406;51.044;3.766;2022-09-30T08:57:25;5.50;;;2.70;;
63280;SDS011;49406;51.044;3.766;2022-09-30T09:00:09;3.40;;;2.60;;
63280;SDS011;49406;51.044;3.766;2022-09-30T09:02:47;3.80;;;2.80;;
63280;SDS011;49406;51.044;3.766;2022-09-30T09:05:29;2.80;;;1.80;;
63280;SDS011;49406;51.044;3.766;2022-09-30T09:08:13;3.20;;;3.00;;
63280;SDS011;49406;51.044;3.766;2022-09-30T09:10:53;10.50;;;3.30;;
63280;SDS011;49406;51.044;3.766;2022-09-30T09:13:41;4.90;;;2.30;;
63280;SDS011;49406;51.044;3.766;2022-09-30T09:16:23;6.00;;;2.50;;
63280;SDS011;49406;51.044;3.766;2022-09-30T09:19:05;1.20;;;1.10;;
63280;SDS011;49406;51.044;3.766;2022-09-30T09:21:45;3.50;;;1.90;;
63280;SDS011;49406;51.044;3.766;2022-09-30T09:24:25;13.80;;;2.80;;
63280;SDS011;49406;51.044;3.766;2022-09-30T09:27:02;1.70;;;1.30;;
63280;SDS011;49406;51.044;3.766;2022-09-30T09:29:51;9.30;;;1.90;;
63280;SDS011;49406;51.044;3.766;2022-09-30T09:32:36;3.40;;;1.80;;
63280;SDS011;49406;51.044;3.766;2022-09-30T09:35:14;1.90;;;1.00;;
63280;SDS011;49406;51.044;3.766;2022-09-30T09:37:53;7.50;;;2.60;;
63280;SDS011;49406;51.044;3.766;2022-09-30T09:40:52;3.10;;;1.60;;
63280;SDS011;49406;51.044;3.766;2022-09-30T09:43:40;3.20;;;2.20;;
63280;SDS011;49406;51.044;3.766;2022-09-30T09:46:23;3.20;;;2.80;;
63280;SDS011;49406;51.044;3.766;2022-09-30T09:55:20;2.30;;;1.70;;
63280;SDS011;49406;51.044;3.766;2022-09-30T09:58:08;4.50;;;2.10;;
63280;SDS011;49406;51.044;3.766;2022-09-30T10:00:45;3.40;;;2.30;;
63280;SDS011;49406;51.044;3.766;2022-09-30T10:03:42;2.00;;;1.90;;
63280;SDS011;49406;51.044;3.766;2022-09-30T10:06:17;2.40;;;2.20;;
63280;SDS011;49406;51.044;3.766;2022-09-30T10:08:54;1.80;;;1.70;;
63280;SDS011;49406;51.044;3.766;2022-09-30T10:11:29;12.60;;;2.20;;
63280;SDS011;49406;51.044;3.766;2022-09-30T10:14:03;1.80;;;1.60;;
63280;SDS011;49406;51.044;3.766;2022-09-30T10:16:47;1.80;;;1.70;;
63280;SDS011;49406;51.044;3.766;2022-09-30T10:19:30;4.20;;;1.80;;
63280;SDS011;49406;51.044;3.766;2022-09-30T10:22:17;3.20;;;2.60;;
63280;SDS011;49406;51.044;3.766;2022-09-30T10:25:15;1.70;;;1.60;;
63280;SDS011;49406;51.044;3.766;2022-09-30T10:27:56;2.50;;;1.70;;
63280;SDS011;49406;51.044;3.766;2022-09-30T10:30:36;3.60;;;2.80;;
63280;SDS011;49406;51.044;3.766;2022-09-30T10:33:18;2.40;;;2.00;;
63280;SDS011;49406;51.044;3.766;2022-09-30T10:35:59;2.30;;;1.70;;
63280;SDS011;49406;51.044;3.766;2022-09-30T10:38:43;2.50;;;2.20;;
63280;SDS011;49406;51.044;3.766;2022-09-30T10:41:24;4.50;;;1.60;;
63280;SDS011;49406;51.044;3.766;2022-09-30T10:44:01;2.30;;;1.80;;
63280;SDS011;49406;51.044;3.766;2022-09-30T10:46:38;4.50;;;3.10;;
63280;SDS011;49406;51.044;3.766;2022-09-30T10:49:22;3.40;;;2.20;;
63280;SDS011;49406;51.044;3.766;2022-09-30T10:52:00;2.90;;;2.70;;
63280;SDS011;49406;51.044;3.766;2022-09-30T10:54:41;3.40;;;1.80;;
63280;SDS011;49406;51.044;3.766;2022-09-30T10:57:20;10.70;;;2.20;;
63280;SDS011;49406;51.044;3.766;2022-09-30T10:59:57;2.70;;;2.40;;
63280;SDS011;49406;51.044;3.766;2022-09-30T11:02:36;4.60;;;2.00;;
63280;SDS011;49406;51.044;3.766;2022-09-30T11:05:14;3.70;;;2.70;;
63280;SDS011;49406;51.044;3.766;2022-09-30T11:07:52;4.90;;;2.70;;
63280;SDS011;49406;51.044;3.766;2022-09-30T11:10:32;3.70;;;3.00;;
63280;SDS011;49406;51.044;3.766;2022-09-30T11:13:12;3.00;;;2.00;;
63280;SDS011;49406;51.044;3.766;2022-09-30T11:15:55;2.40;;;2.20;;
63280;SDS011;49406;51.044;3.766;2022-09-30T11:18:36;2.10;;;1.60;;
63280;SDS011;49406;51.044;3.766;2022-09-30T11:21:17;3.90;;;2.70;;
63280;SDS011;49406;51.044;3.766;2022-09-30T11:23:53;2.50;;;2.30;;
63280;SDS011;49406;51.044;3.766;2022-09-30T11:26:37;2.80;;;2.60;;
63280;SDS011;49406;51.044;3.766;2022-09-30T11:29:25;4.20;;;3.50;;
63280;SDS011;49406;51.044;3.766;2022-09-30T11:32:10;4.20;;;2.40;;
63280;SDS011;49406;51.044;3.766;2022-09-30T11:34:55;1.50;;;1.40;;
63280;SDS011;49406;51.044;3.766;2022-09-30T11:37:39;2.50;;;1.20;;
63280;SDS011;49406;51.044;3.766;2022-09-30T11:40:30;7.10;;;3.20;;
63280;SDS011;49406;51.044;3.766;2022-09-30T11:43:12;4.60;;;2.90;;
63280;SDS011;49406;51.044;3.766;2022-09-30T11:46:05;4.00;;;2.50;;
63280;SDS011;49406;51.044;3.766;2022-09-30T11:48:54;7.20;;;2.60;;
63280;SDS011;49406;51.044;3.766;2022-09-30T11:51:41;2.80;;;1.30;;
63280;SDS011;49406;51.044;3.766;2022-09-30T11:54:28;4.60;;;2.50;;
63280;SDS011;49406;51.044;3.766;2022-09-30T11:57:15;1.60;;;1.50;;
63280;SDS011;49406;51.044;3.766;2022-09-30T11:59:57;1.80;;;1.40;;
63280;SDS011;49406;51.044;3.766;2022-09-30T12:02:34;3.00;;;1.10;;
63280;SDS011;49406;51.044;3.766;2022-09-30T12:05:12;3.00;;;2.10;;
63280;SDS011;49406;51.044;3.766;2022-09-30T12:07:50;2.40;;;1.20;;
63280;SDS011;49406;51.044;3.766;2022-09-30T12:10:30;2.10;;;1.50;;
63280;SDS011;49406;51.044;3.766;2022-09-30T12:13:10;5.30;;;1.20;;
63280;SDS011;49406;51.044;3.766;2022-09-30T12:15:48;0.70;;;0.60;;
63280;SDS011;49406;51.044;3.766;2022-09-30T12:18:27;3.20;;;1.60;;
63280;SDS011;49406;51.044;3.766;2022-09-30T12:21:11;3.00;;;2.30;;
63280;SDS011;49406;51.044;3.766;2022-09-30T12:26:29;1.50;;;1.10;;
63280;SDS011;49406;51.044;3.766;2022-09-30T12:29:05;2.60;;;2.00;;
63280;SDS011;49406;51.044;3.766;2022-09-30T12:35:29;2.70;;;1.90;;
63280;SDS011;49406;51.044;3.766;2022-09-30T12:38:22;17.70;;;4.50;;
63280;SDS011;49406;51.044;3.766;2022-09-30T12:47:21;1.80;;;1.30;;
63280;SDS011;49406;51.044;3.766;2022-09-30T12:50:05;2.40;;;1.20;;
63280;SDS011;49406;51.044;3.766;2022-09-30T12:52:41;1.10;;;0.70;;
63280;SDS011;49406;51.044;3.766;2022-09-30T12:55:19;4.40;;;1.90;;
63280;SDS011;49406;51.044;3.766;2022-09-30T12:57:58;1.50;;;0.70;;
63280;SDS011;49406;51.044;3.766;2022-09-30T13:00:33;2.70;;;1.10;;
63280;SDS011;49406;51.044;3.766;2022-09-30T13:03:08;1.90;;;1.40;;
63280;SDS011;49406;51.044;3.766;2022-09-30T13:05:53;3.00;;;2.70;;
63280;SDS011;49406;51.044;3.766;2022-09-30T13:08:40;2.80;;;1.70;;
63280;SDS011;49406;51.044;3.766;2022-09-30T13:14:20;3.80;;;2.80;;
63280;SDS011;49406;51.044;3.766;2022-09-30T13:20:00;1.20;;;0.80;;
63280;SDS011;49406;51.044;3.766;2022-09-30T13:22:57;1.40;;;1.10;;
63280;SDS011;49406;51.044;3.766;2022-09-30T13:25:42;7.10;;;1.30;;
63280;SDS011;49406;51.044;3.766;2022-09-30T13:28:26;1.40;;;1.00;;
63280;SDS011;49406;51.044;3.766;2022-09-30T13:31:11;4.00;;;2.60;;
63280;SDS011;49406;51.044;3.766;2022-09-30T13:34:02;2.50;;;2.20;;
63280;SDS011;49406;51.044;3.766;2022-09-30T13:36:55;1.50;;;1.30;;
63280;SDS011;49406;51.044;3.766;2022-09-30T13:39:42;1.50;;;1.00;;
63280;SDS011;49406;51.044;3.766;2022-09-30T13:42:21;2.80;;;1.10;;
63280;SDS011;49406;51.044;3.766;2022-09-30T13:45:00;1.60;;;1.10;;
63280;SDS011;49406;51.044;3.766;2022-09-30T13:47:38;1.80;;;0.90;;
63280;SDS011;49406;51.044;3.766;2022-09-30T13:50:16;1.80;;;1.40;;
63280;SDS011;49406;51.044;3.766;2022-09-30T13:53:04;0.90;;;0.80;;
63280;SDS011;49406;51.044;3.766;2022-09-30T13:55:46;2.00;;;1.00;;
63280;SDS011;49406;51.044;3.766;2022-09-30T14:01:26;1.90;;;1.10;;
63280;SDS011;49406;51.044;3.766;2022-09-30T14:04:23;0.70;;;0.70;;
63280;SDS011;49406;51.044;3.766;2022-09-30T14:07:14;0.90;;;0.60;;
63280;SDS011;49406;51.044;3.766;2022-09-30T14:10:05;1.30;;;1.10;;
63280;SDS011;49406;51.044;3.766;2022-09-30T14:12:55;7.80;;;1.30;;
63280;SDS011;49406;51.044;3.766;2022-09-30T14:18:46;4.90;;;1.00;;
63280;SDS011;49406;51.044;3.766;2022-09-30T14:21:38;1.20;;;0.90;;
63280;SDS011;49406;51.044;3.766;2022-09-30T14:24:20;1.50;;;1.30;;
63280;SDS011;49406;51.044;3.766;2022-09-30T14:27:16;5.80;;;1.60;;
63280;SDS011;49406;51.044;3.766;2022-09-30T14:30:03;0.30;;;0.30;;
63280;SDS011;49406;51.044;3.766;2022-09-30T14:32:44;2.30;;;1.70;;
63280;SDS011;49406;51.044;3.766;2022-09-30T14:35:21;1.70;;;1.10;;
63280;SDS011;49406;51.044;3.766;2022-09-30T14:38:00;2.60;;;0.40;;
63280;SDS011;49406;51.044;3.766;2022-09-30T14:40:38;2.30;;;1.20;;
63280;SDS011;49406;51.044;3.766;2022-09-30T14:43:21;1.50;;;1.20;;
63280;SDS011;49406;51.044;3.766;2022-09-30T14:46:04;2.20;;;1.30;;
63280;SDS011;49406;51.044;3.766;2022-09-30T14:48:46;2.00;;;1.20;;
63280;SDS011;49406;51.044;3.766;2022-09-30T14:51:22;1.60;;;0.80;;
63280;SDS011;49406;51.044;3.766;2022-09-30T14:53:58;1.90;;;1.50;;
63280;SDS011;49406;51.044;3.766;2022-09-30T14:56:34;3.30;;;1.10;;
63280;SDS011;49406;51.044;3.766;2022-09-30T14:59:16;1.30;;;1.10;;
63280;SDS011;49406;51.044;3.766;2022-09-30T15:01:53;4.10;;;0.60;;
63280;SDS011;49406;51.044;3.766;2022-09-30T15:04:31;0.40;;;0.40;;
63280;SDS011;49406;51.044;3.766;2022-09-30T15:07:09;1.00;;;0.80;;
63280;SDS011;49406;51.044;3.766;2022-09-30T15:09:45;2.50;;;1.20;;
63280;SDS011;49406;51.044;3.766;2022-09-30T15:12:21;1.20;;;0.50;;
63280;SDS011;49406;51.044;3.766;2022-09-30T15:14:57;0.00;;;0.00;;
63280;SDS011;49406;51.044;3.766;2022-09-30T15:17:35;1.60;;;1.00;;
63280;SDS011;49406;51.044;3.766;2022-09-30T15:20:22;0.60;;;0.50;;
63280;SDS011;49406;51.044;3.766;2022-09-30T15:23:01;1.40;;;0.90;;
63280;SDS011;49406;51.044;3.766;2022-09-30T15:25:41;0.90;;;0.70;;
63280;SDS011;49406;51.044;3.766;2022-09-30T15:28:16;0.50;;;0.50;;
63280;SDS011;49406;51.044;3.766;2022-09-30T15:30:50;1.20;;;0.60;;
63280;SDS011;49406;51.044;3.766;2022-09-30T15:33:28;1.60;;;0.80;;
63280;SDS011;49406;51.044;3.766;2022-09-30T15:36:06;1.90;;;1.10;;
63280;SDS011;49406;51.044;3.766;2022-09-30T15:38:48;3.80;;;0.90;;
63280;SDS011;49406;51.044;3.766;2022-09-30T15:41:23;0.60;;;0.50;;
63280;SDS011;49406;51.044;3.766;2022-09-30T15:43:58;1.20;;;0.80;;
63280;SDS011;49406;51.044;3.766;2022-09-30T15:46:34;0.60;;;0.20;;
63280;SDS011;49406;51.044;3.766;2022-09-30T15:49:29;0.50;;;0.50;;
63280;SDS011;49406;51.044;3.766;2022-09-30T15:52:19;1.70;;;0.90;;
63280;SDS011;49406;51.044;3.766;2022-09-30T16:01:11;1.50;;;0.90;;
63280;SDS011;49406;51.044;3.766;2022-09-30T16:03:49;0.60;;;0.50;;
63280;SDS011;49406;51.044;3.766;2022-09-30T16:06:26;1.00;;;0.80;;
63280;SDS011;49406;51.044;3.766;2022-09-30T16:09:07;1.40;;;0.50;;
63280;SDS011;49406;51.044;3.766;2022-09-30T16:12:00;1.50;;;0.80;;
63280;SDS011;49406;51.044;3.766;2022-09-30T16:14:40;3.00;;;0.80;;
63280;SDS011;49406;51.044;3.766;2022-09-30T16:17:19;0.70;;;0.50;;
63280;SDS011;49406;51.044;3.766;2022-09-30T16:19:56;0.80;;;0.80;;
63280;SDS011;49406;51.044;3.766;2022-09-30T16:25:24;0.60;;;0.60;;
63280;SDS011;49406;51.044;3.766;2022-09-30T16:28:07;1.50;;;0.80;;
63280;SDS011;49406;51.044;3.766;2022-09-30T16:30:44;1.00;;;1.00;;
63280;SDS011;49406;51.044;3.766;2022-09-30T16:33:21;7.40;;;2.10;;
63280;SDS011;49406;51.044;3.766;2022-09-30T16:35:55;0.90;;;0.80;;
63280;SDS011;49406;51.044;3.766;2022-09-30T16:38:29;1.40;;;1.10;;
63280;SDS011;49406;51.044;3.766;2022-09-30T16:41:04;1.90;;;1.40;;
63280;SDS011;49406;51.044;3.766;2022-09-30T16:43:40;1.40;;;1.00;;
63280;SDS011;49406;51.044;3.766;2022-09-30T16:46:15;2.10;;;1.30;;
63280;SDS011;49406;51.044;3.766;2022-09-30T16:48:49;4.10;;;1.30;;